Time;durP1;ratioP1;P1;durP2;ratioP2;P2;SDS_P1;SDS_P2;PMS_P1;PMS_P2;Temp;Humidity;BMP_temperature;BMP_pressure;BME280_temperature;BME280_humidity;BME280_pressure;Samples;Min_cycle;Max_cycle;Signal;HPM_P1;HPM_P2
2023/01/03 00:01:16;;;;;;;;;1.00;1.00;;;;;20.59;60.72;101074.42;105474;1282;19481;-64
2023/01/03 00:03:43;;;;;;;;;2.00;1.00;;;;;20.59;60.73;101072.59;105507;1283;22893;-65
2023/01/03 00:06:11;;;;;;;;;1.00;1.00;;;;;20.59;60.78;101075.59;105507;1282;18410;-65
2023/01/03 00:08:38;;;;;;;;;2.00;2.00;;;;;20.59;60.57;101079.88;105489;1282;20687;-64
2023/01/03 00:11:05;;;;;;;;;2.00;2.00;;;;;20.59;60.78;101083.72;105475;1275;19605;-65
2023/01/03 00:13:33;;;;;;;;;2.00;2.00;;;;;20.59;60.84;101086.64;105478;1292;20173;-65
2023/01/03 00:16:00;;;;;;;;;1.00;1.00;;;;;20.58;60.83;101088.75;105471;1282;22659;-65
2023/01/03 00:18:27;;;;;;;;;1.00;1.00;;;;;20.58;60.85;101087.09;105496;1282;18392;-64
2023/01/03 00:20:54;;;;;;;;;2.00;1.00;;;;;20.57;60.83;101079.36;105477;1297;18790;-65
2023/01/03 00:23:22;;;;;;;;;1.00;1.00;;;;;20.58;60.78;101090.14;105450;1274;19267;-65
2023/01/03 00:25:49;;;;;;;;;2.00;1.00;;;;;20.57;60.77;101098.21;105377;1297;18482;-65
2023/01/03 00:28:16;;;;;;;;;2.00;1.00;;;;;20.58;60.70;101102.50;105364;1297;18835;-63
2023/01/03 00:30:44;;;;;;;;;1.00;1.00;;;;;20.58;60.73;101104.74;105503;1282;19256;-64
2023/01/03 00:33:11;;;;;;;;;1.00;1.00;;;;;20.58;60.74;101120.85;105495;1275;19523;-64
2023/01/03 00:35:38;;;;;;;;;1.00;1.00;;;;;20.58;60.70;101123.82;105423;1282;18526;-64
2023/01/03 00:38:06;;;;;;;;;1.00;1.00;;;;;20.58;60.72;101128.17;105545;1297;22395;-64
2023/01/03 00:40:33;;;;;;;;;2.50;2.50;;;;;20.57;60.91;101133.85;105482;1281;19745;-65
2023/01/03 00:45:46;;;;;;;;;1.00;1.00;;;;;20.56;60.79;101139.18;105419;1275;19353;-63
2023/01/03 00:48:13;;;;;;;;;1.00;1.00;;;;;20.56;60.75;101153.52;105446;1304;22178;-65
2023/01/03 00:50:40;;;;;;;;;1.50;1.50;;;;;20.56;60.81;101164.04;105304;1297;21573;-64
2023/01/03 00:53:08;;;;;;;;;1.00;1.00;;;;;20.57;60.66;101164.38;105302;1282;19183;-63
2023/01/03 00:55:35;;;;;;;;;2.00;2.00;;;;;20.57;60.65;101170.00;105488;1275;18372;-64
2023/01/03 00:58:02;;;;;;;;;1.00;1.00;;;;;20.57;60.82;101173.13;105429;1282;19966;-64
2023/01/03 01:00:30;;;;;;;;;1.00;1.00;;;;;20.56;60.74;101179.33;105537;1297;19402;-64
2023/01/03 01:02:57;;;;;;;;;1.00;1.00;;;;;20.55;60.84;101174.90;105494;1283;19690;-65
2023/01/03 01:05:24;;;;;;;;;2.00;2.00;;;;;20.56;60.82;101176.46;105500;1297;18470;-63
2023/01/03 01:07:52;;;;;;;;;1.00;1.00;;;;;20.55;60.71;101174.90;105489;1297;19610;-66
2023/01/03 01:10:19;;;;;;;;;1.00;1.00;;;;;20.56;60.62;101182.45;105437;1275;19170;-64
2023/01/03 01:12:47;;;;;;;;;1.50;1.00;;;;;20.55;60.80;101186.55;105489;1282;22168;-63
2023/01/03 01:15:14;;;;;;;;;1.00;1.00;;;;;20.55;60.80;101184.91;105392;1275;20669;-63
2023/01/03 01:17:41;;;;;;;;;1.00;1.00;;;;;20.53;60.64;101175.04;105519;1275;18283;-64
2023/01/03 01:20:09;;;;;;;;;1.00;1.00;;;;;20.54;60.71;101182.25;105486;1282;18385;-63
2023/01/03 01:22:36;;;;;;;;;2.00;2.00;;;;;20.54;60.79;101183.17;105512;1298;19284;-64
2023/01/03 01:25:03;;;;;;;;;1.00;1.00;;;;;20.54;60.68;101188.20;105510;1282;18561;-64
2023/01/03 01:27:31;;;;;;;;;1.00;1.00;;;;;20.55;60.86;101197.43;105535;1282;22430;-64
2023/01/03 01:29:58;;;;;;;;;1.00;1.00;;;;;20.54;60.65;101202.71;105430;1298;19265;-64
2023/01/03 01:32:25;;;;;;;;;1.00;1.00;;;;;20.55;60.83;101208.88;105452;1285;22316;-63
2023/01/03 01:34:53;;;;;;;;;1.00;1.00;;;;;20.54;60.71;101214.15;105392;1281;20258;-62
2023/01/03 01:37:20;;;;;;;;;1.00;1.00;;;;;20.54;60.73;101213.84;105457;1297;19317;-65
2023/01/03 01:39:47;;;;;;;;;2.00;1.00;;;;;20.54;60.65;101213.67;105500;1289;22157;-64
2023/01/03 01:45:00;;;;;;;;;1.00;1.00;;;;;20.54;60.63;101220.75;105431;1282;19730;-64
2023/01/03 01:47:27;;;;;;;;;1.00;1.00;;;;;20.53;60.74;101223.92;105490;1275;19568;-64
2023/01/03 01:49:54;;;;;;;;;1.00;1.00;;;;;20.53;60.59;101228.45;105463;1282;20016;-64
2023/01/03 01:52:22;;;;;;;;;1.00;1.00;;;;;20.52;60.68;101229.05;105493;1275;19393;-64
2023/01/03 01:54:49;;;;;;;;;1.00;1.00;;;;;20.52;60.55;101227.66;105559;1275;18774;-64
2023/01/03 01:57:16;;;;;;;;;1.00;1.00;;;;;20.52;60.74;101234.23;105472;1289;20039;-64
2023/01/03 01:59:44;;;;;;;;;1.00;1.00;;;;;20.52;60.59;101244.71;105492;1297;21041;-64
2023/01/03 02:02:11;;;;;;;;;2.00;1.00;;;;;20.52;60.76;101250.73;105496;1282;19611;-64
2023/01/03 02:04:38;;;;;;;;;1.00;1.00;;;;;20.52;60.66;101255.41;105479;1291;19178;-64
2023/01/03 02:07:06;;;;;;;;;1.00;1.00;;;;;20.52;60.67;101253.42;105472;1292;20825;-64
2023/01/03 02:09:34;;;;;;;;;1.00;1.00;;;;;20.52;60.81;101250.19;105554;1297;18365;-65
2023/01/03 02:14:42;;;;;;;;;1.00;1.00;;;;;20.52;60.75;101252.91;105495;1276;20894;-64
2023/01/03 02:17:10;;;;;;;;;1.00;1.00;;;;;20.51;60.52;101257.70;105476;1298;18311;-65
2023/01/03 02:19:37;;;;;;;;;1.00;1.00;;;;;20.51;60.64;101261.31;105498;1297;18811;-64
2023/01/03 02:22:04;;;;;;;;;1.00;1.00;;;;;20.51;60.63;101258.96;105505;1297;19285;-65
2023/01/03 02:24:32;;;;;;;;;1.00;1.00;;;;;20.51;60.53;101259.34;105532;1282;18378;-64
2023/01/03 02:26:59;;;;;;;;;1.00;1.00;;;;;20.51;60.49;101261.31;105474;1297;18468;-65
2023/01/03 02:29:27;;;;;;;;;1.00;1.00;;;;;20.51;60.61;101266.59;105489;1297;19272;-65
2023/01/03 02:31:54;;;;;;;;;1.00;1.00;;;;;20.52;60.73;101267.44;105517;1282;19605;-65
2023/01/03 02:34:21;;;;;;;;;1.00;1.00;;;;;20.51;60.67;101272.98;105461;1274;19913;-64
2023/01/03 02:36:48;;;;;;;;;1.00;1.00;;;;;20.51;60.58;101279.52;105495;1275;20954;-64
2023/01/03 02:39:16;;;;;;;;;1.00;1.00;;;;;20.51;60.60;101278.09;105479;1297;20205;-64
2023/01/03 02:41:43;;;;;;;;;1.00;1.00;;;;;20.50;60.57;101272.95;105513;1289;18591;-64
2023/01/03 02:44:10;;;;;;;;;1.00;1.00;;;;;20.50;60.71;101279.95;105517;1297;20771;-64
2023/01/03 02:46:38;;;;;;;;;1.00;1.00;;;;;20.50;60.58;101285.27;105496;1291;22660;-64
2023/01/03 02:49:05;;;;;;;;;1.00;1.00;;;;;20.50;60.48;101289.41;105443;1282;20015;-64
2023/01/03 02:51:32;;;;;;;;;2.00;1.00;;;;;20.48;60.59;101294.15;105533;1291;20836;-64
2023/01/03 02:54:00;;;;;;;;;1.00;1.00;;;;;20.49;60.52;101296.40;105468;1275;22201;-64
2023/01/03 02:56:27;;;;;;;;;1.00;1.00;;;;;20.50;60.48;101303.41;105453;1275;20035;-64
2023/01/03 02:58:54;;;;;;;;;1.00;1.00;;;;;20.49;60.46;101306.02;105447;1291;20770;-64
2023/01/03 03:01:22;;;;;;;;;1.00;1.00;;;;;20.49;60.41;101309.47;105460;1281;24158;-63
2023/01/03 03:03:49;;;;;;;;;1.00;1.00;;;;;20.49;60.57;101311.88;105607;1297;19943;-63
2023/01/03 03:06:17;;;;;;;;;1.00;1.00;;;;;20.48;60.53;101309.23;105465;1281;19499;-64
2023/01/03 03:08:44;;;;;;;;;1.00;1.00;;;;;20.49;60.28;101311.71;105398;1297;20045;-63
2023/01/03 03:13:56;;;;;;;;;1.00;1.00;;;;;20.48;60.43;101315.55;105431;1289;19539;-65
2023/01/03 03:19:05;;;;;;;;;1.00;1.00;;;;;20.48;60.54;101323.01;105510;1297;18501;-64
2023/01/03 03:30:11;;;;;;;;;;;;;;;20.48;60.40;101337.72;104679;1291;20958;-63
2023/01/03 03:32:38;;;;;;;;;1.00;1.00;;;;;20.49;60.25;101346.02;104685;1292;21334;-64
2023/01/03 03:35:06;;;;;;;;;1.00;1.00;;;;;20.48;60.59;101343.71;104661;1300;20378;-64
2023/01/03 03:37:33;;;;;;;;;1.00;1.00;;;;;20.48;60.60;101343.58;104688;1293;19562;-64
2023/01/03 03:45:30;;;;;;;;;1.00;1.00;;;;;20.48;60.50;101350.69;104722;1309;25929;-64
2023/01/03 03:47:58;;;;;;;;;1.00;1.00;;;;;20.47;60.53;101353.13;104661;1293;19425;-64
2023/01/03 03:50:25;;;;;;;;;1.00;1.00;;;;;20.47;60.41;101354.33;104648;1293;21902;-64
2023/01/03 03:52:52;;;;;;;;;1.00;1.00;;;;;20.46;60.48;101352.61;104677;1309;20875;-64
2023/01/03 03:55:20;;;;;;;;;1.00;1.00;;;;;20.47;60.31;101349.12;104629;1308;21977;-63
2023/01/03 03:57:47;;;;;;;;;1.00;1.00;;;;;20.47;60.48;101347.86;104671;1300;20171;-63
2023/01/03 04:00:14;;;;;;;;;1.00;1.00;;;;;20.46;60.46;101345.20;105079;1301;19318;-63
2023/01/03 04:02:42;;;;;;;;;1.00;1.00;;;;;20.46;60.39;101350.86;105521;1282;23988;-64
2023/01/03 04:05:09;;;;;;;;;1.00;1.00;;;;;20.46;60.37;101353.88;105526;1298;26111;-64
2023/01/03 04:07:38;;;;;;;;;1.00;1.00;;;;;20.46;60.41;101354.88;105574;1301;22063;-63
2023/01/03 04:10:06;;;;;;;;;1.00;1.00;;;;;20.46;60.51;101357.35;105439;1305;22234;-64
2023/01/03 04:12:33;;;;;;;;;1.00;1.00;;;;;20.46;60.40;101359.56;105490;1297;23278;-64
2023/01/03 04:15:02;;;;;;;;;1.00;1.00;;;;;20.46;60.51;101364.29;105485;1275;19273;-65
2023/01/03 04:17:29;;;;;;;;;1.00;1.00;;;;;20.46;60.36;101360.85;105486;1300;18407;-64
2023/01/03 04:19:57;;;;;;;;;1.00;1.00;;;;;20.46;60.29;101361.75;105397;1286;18832;-63
2023/01/03 04:22:24;;;;;;;;;1.00;1.00;;;;;20.45;60.37;101363.77;105445;1283;19340;-63
2023/01/03 04:24:51;;;;;;;;;1.00;1.00;;;;;20.45;60.49;101366.70;105554;1289;22982;-64
2023/01/03 04:27:19;;;;;;;;;1.00;1.00;;;;;20.46;60.41;101368.48;105465;1282;23056;-64
2023/01/03 04:29:46;;;;;;;;;1.00;1.00;;;;;20.46;60.44;101376.41;105431;1282;20903;-63
2023/01/03 04:32:13;;;;;;;;;;;;;;;20.46;60.24;101384.95;105436;1301;18469;-64
2023/01/03 04:34:41;;;;;;;;;1.00;1.00;;;;;20.46;60.29;101385.54;105558;1297;22159;-64
2023/01/03 04:37:08;;;;;;;;;1.00;1.00;;;;;20.46;60.46;101390.77;105531;1291;19136;-64
2023/01/03 04:39:35;;;;;;;;;1.00;1.00;;;;;20.46;60.49;101391.52;105482;1304;18328;-65
2023/01/03 04:44:00;;;;;;;;;1.00;1.00;;;;;20.45;60.49;101396.30;105466;1282;18534;-64
2023/01/03 04:44:50;;;;;;;;;1.00;1.00;;;;;20.45;60.23;101400.48;105470;1282;22056;-64
2023/01/03 04:47:17;;;;;;;;;1.00;1.00;;;;;20.45;60.37;101405.19;105453;1297;22727;-64
2023/01/03 04:49:45;;;;;;;;;1.00;1.00;;;;;20.45;60.40;101407.36;105443;1298;21978;-65
2023/01/03 04:52:13;;;;;;;;;1.00;1.00;;;;;20.44;60.46;101410.74;105469;1298;21092;-65
2023/01/03 04:54:40;;;;;;;;;1.00;1.00;;;;;20.45;60.42;101407.24;105507;1300;18661;-64
2023/01/03 04:57:07;;;;;;;;;1.00;1.00;;;;;20.44;60.44;101409.45;105454;1283;21892;-65
2023/01/03 04:59:35;;;;;;;;;1.00;1.00;;;;;20.44;60.51;101411.28;105460;1290;33765;-64
2023/01/03 05:02:02;;;;;;;;;1.00;1.00;;;;;20.44;60.33;101412.19;105474;1297;18566;-65
2023/01/03 05:04:29;;;;;;;;;1.00;1.00;;;;;20.45;60.36;101412.86;105464;1298;18382;-64
2023/01/03 05:06:57;;;;;;;;;1.00;1.00;;;;;20.44;60.29;101412.73;105575;1282;21039;-65
2023/01/03 05:09:25;;;;;;;;;1.00;1.00;;;;;20.44;60.50;101414.21;105505;1298;18680;-65
2023/01/03 05:11:53;;;;;;;;;1.00;1.00;;;;;20.44;60.46;101416.02;105489;1297;20987;-65
2023/01/03 05:14:20;;;;;;;;;1.00;1.00;;;;;20.43;60.26;101415.77;105517;1291;20795;-65
2023/01/03 05:16:47;;;;;;;;;1.00;1.00;;;;;20.44;60.28;101424.52;105455;1289;22449;-65
2023/01/03 05:19:14;;;;;;;;;1.00;1.00;;;;;20.44;60.27;101426.04;105424;1292;18555;-65
2023/01/03 05:27:12;;;;;;;;;1.00;1.00;;;;;20.42;60.23;101437.41;105577;1299;18666;-64
2023/01/03 05:29:40;;;;;;;;;1.00;1.00;;;;;20.43;60.34;101438.67;105417;1281;91636;-65
2023/01/03 05:32:07;;;;;;;;;1.00;1.00;;;;;20.42;60.12;101441.59;105478;1291;18392;-65
2023/01/03 05:34:34;;;;;;;;;1.00;1.00;;;;;20.43;60.43;101446.98;105450;1291;18394;-62
2023/01/03 05:37:02;;;;;;;;;1.00;1.00;;;;;20.43;60.29;101452.45;105477;1288;22014;-64
2023/01/03 05:39:29;;;;;;;;;1.00;1.00;;;;;20.43;60.39;101454.20;105539;1300;18769;-64
2023/01/03 05:41:59;;;;;;;;;1.00;1.00;;;;;20.43;60.25;101458.61;105489;1288;20035;-64
2023/01/03 05:44:26;;;;;;;;;1.00;1.00;;;;;20.44;60.25;101463.04;105518;1297;22505;-64
2023/01/03 05:46:54;;;;;;;;;1.00;1.00;;;;;20.45;60.30;101472.22;105439;1281;19608;-63
2023/01/03 05:49:21;;;;;;;;;35.00;35.00;;;;;20.47;60.20;101475.46;105471;1297;18500;-64
2023/01/03 05:51:49;;;;;;;;;47.00;44.00;;;;;20.52;60.23;101476.94;105557;1294;19265;-63
2023/01/03 05:54:16;;;;;;;;;189.00;162.50;;;;;20.56;60.55;101479.79;105424;1288;20070;-65
2023/01/03 05:56:43;;;;;;;;;154.00;132.00;;;;;20.59;60.80;101483.34;105505;1282;22753;-64
2023/01/03 05:59:11;;;;;;;;;116.00;99.00;;;;;20.61;61.49;101484.25;105473;1281;19401;-65
2023/01/03 06:01:38;;;;;;;;;87.00;67.00;;;;;20.62;61.93;101487.34;105395;1282;20340;-65
2023/01/03 06:04:05;;;;;;;;;71.50;54.50;;;;;20.62;61.92;101492.95;105599;1279;18654;-65
2023/01/03 06:06:33;;;;;;;;;64.00;53.00;;;;;20.59;61.97;101492.45;105477;1301;23636;-64
2023/01/03 06:09:00;;;;;;;;;;;;;;;20.58;62.01;101494.90;105495;1282;18592;-65
2023/01/03 06:11:27;;;;;;;;;43.00;40.00;;;;;20.59;61.85;101494.09;105423;1297;21369;-65
2023/01/03 06:13:55;;;;;;;;;40.00;35.00;;;;;20.58;61.97;101495.95;105398;1291;20999;-64
2023/01/03 06:19:07;;;;;;;;;34.50;31.00;;;;;20.59;61.84;101498.39;105494;1282;18622;-63
2023/01/03 06:21:35;;;;;;;;;33.00;30.00;;;;;20.61;62.05;101502.23;105548;1297;21081;-67
2023/01/03 06:24:02;;;;;;;;;;;;;;;20.64;62.13;101501.74;105432;1281;21015;-65
2023/01/03 06:26:29;;;;;;;;;22.00;21.00;;;;;20.66;62.25;101507.29;105501;1275;20078;-64
2023/01/03 06:28:57;;;;;;;;;25.50;23.00;;;;;20.66;62.14;101508.98;105467;1275;20878;-64
2023/01/03 06:31:24;;;;;;;;;24.00;21.00;;;;;20.65;62.25;101507.46;105525;1298;19934;-64
2023/01/03 06:33:51;;;;;;;;;19.00;18.00;;;;;20.63;62.26;101511.92;105455;1282;22180;-64
2023/01/03 06:36:19;;;;;;;;;22.00;18.00;;;;;20.61;62.25;101517.26;105483;1275;19294;-64
2023/01/03 06:38:46;;;;;;;;;20.00;15.00;;;;;20.60;62.29;101518.13;105514;1297;18507;-64
2023/01/03 06:41:14;;;;;;;;;21.00;17.00;;;;;20.59;62.39;101519.27;105455;1297;23172;-64
2023/01/03 06:43:41;;;;;;;;;18.00;17.00;;;;;20.59;62.56;101522.25;105549;1282;21026;-64
2023/01/03 06:54:23;;;;;;;;;11.00;11.00;;;;;20.58;62.30;101545.77;105353;1298;19477;-64
2023/01/03 06:56:51;;;;;;;;;10.50;10.00;;;;;20.57;62.46;101547.27;105535;1282;22794;-66
2023/01/03 06:59:18;;;;;;;;;10.00;10.00;;;;;20.57;62.28;101548.00;105536;1297;19467;-65
2023/01/03 07:01:46;;;;;;;;;8.00;7.00;;;;;20.55;62.26;101554.38;105453;1295;20055;-64
2023/01/03 07:04:13;;;;;;;;;8.00;8.00;;;;;20.54;62.37;101556.79;105448;1300;18761;-64
2023/01/03 07:06:40;;;;;;;;;7.00;7.00;;;;;20.53;62.31;101565.95;105494;1288;20699;-64
2023/01/03 07:09:08;;;;;;;;;7.00;7.00;;;;;20.52;62.14;101564.79;105485;1297;18339;-65
2023/01/03 07:11:35;;;;;;;;;7.00;7.00;;;;;20.53;62.32;101565.43;105451;1297;21755;-63
2023/01/03 07:14:02;;;;;;;;;7.50;6.00;;;;;20.52;62.13;101569.89;105468;1298;20351;-63
2023/01/03 07:16:30;;;;;;;;;7.00;5.00;;;;;20.52;61.95;101568.11;105429;1297;23048;-63
2023/01/03 07:18:57;;;;;;;;;6.00;6.00;;;;;20.51;62.24;101572.52;105467;1292;18500;-64
2023/01/03 07:21:24;;;;;;;;;5.00;5.00;;;;;20.50;62.02;101571.15;105484;1282;20742;-63
2023/01/03 07:23:52;;;;;;;;;5.00;5.00;;;;;20.50;61.90;101576.94;105518;1282;18657;-63
2023/01/03 07:26:19;;;;;;;;;4.50;4.50;;;;;20.50;61.90;101578.80;105452;1300;18539;-63
2023/01/03 07:28:46;;;;;;;;;5.00;5.00;;;;;20.50;61.83;101581.11;105529;1298;19257;-63
2023/01/03 07:31:14;;;;;;;;;5.00;5.00;;;;;20.51;61.83;101591.45;105445;1290;23965;-63
2023/01/03 07:33:41;;;;;;;;;4.50;4.00;;;;;20.50;61.86;101593.70;105509;1288;19910;-63
2023/01/03 07:36:08;;;;;;;;;4.50;4.50;;;;;20.50;61.82;101598.81;105489;1289;19345;-65
2023/01/03 07:38:36;;;;;;;;;4.00;4.00;;;;;20.50;61.86;101606.55;105450;1291;19641;-65
2023/01/03 07:41:03;;;;;;;;;4.00;4.00;;;;;20.50;61.76;101620.17;105488;1297;18869;-63
2023/01/03 07:43:36;;;;;;;;;6.00;5.00;;;;;20.50;61.60;101626.05;105469;1304;19291;-63
2023/01/03 07:46:04;;;;;;;;;4.00;4.00;;;;;20.50;61.73;101632.59;105562;1297;19633;-65
2023/01/03 07:48:31;;;;;;;;;5.00;4.50;;;;;20.50;61.55;101635.25;105491;1289;18835;-64
2023/01/03 07:50:59;;;;;;;;;4.00;4.00;;;;;20.49;61.71;101637.86;105473;1282;19268;-65
2023/01/03 07:53:27;;;;;;;;;4.00;4.00;;;;;20.49;61.56;101631.02;105378;1283;18482;-65
2023/01/03 07:55:54;;;;;;;;;5.00;5.00;;;;;20.48;61.58;101638.88;105428;1289;23130;-64
2023/01/03 07:58:21;;;;;;;;;4.00;4.00;;;;;20.49;61.41;101633.74;105509;1289;20779;-64
2023/01/03 08:00:49;;;;;;;;;8.00;7.00;;;;;20.53;61.54;101639.16;105562;1297;19617;-65
2023/01/03 08:03:16;;;;;;;;;5.00;5.00;;;;;20.49;61.21;101643.32;105476;1282;18486;-64
2023/01/03 08:05:43;;;;;;;;;5.00;5.00;;;;;20.49;60.94;101648.48;105497;1282;23414;-63
2023/01/03 08:08:11;;;;;;;;;4.00;4.00;;;;;20.44;60.42;101653.68;105565;1282;22703;-63
2023/01/03 08:13:24;;;;;;;;;5.00;5.00;;;;;20.08;57.30;101662.85;105388;1281;21088;-62
2023/01/03 08:15:51;;;;;;;;;5.00;5.00;;;;;19.94;55.45;101668.70;105481;1298;19162;-64
2023/01/03 08:18:18;;;;;;;;;5.00;5.00;;;;;19.86;53.78;101671.54;105394;1274;18875;-63
2023/01/03 08:20:46;;;;;;;;;4.50;4.50;;;;;19.92;53.34;101670.71;105437;1282;19159;-64
2023/01/03 08:23:13;;;;;;;;;5.00;4.00;;;;;20.05;53.35;101671.86;105411;1274;19779;-65
2023/01/03 08:25:40;;;;;;;;;5.00;5.00;;;;;20.15;53.26;101678.70;105597;1291;18530;-65
2023/01/03 08:28:08;;;;;;;;;8.00;8.00;;;;;20.21;53.14;101669.89;105442;1275;20969;-64
2023/01/03 08:30:35;;;;;;;;;4.50;4.50;;;;;20.32;53.40;101671.71;105561;1298;19637;-65
2023/01/03 08:33:03;;;;;;;;;5.00;5.00;;;;;20.42;53.45;101678.93;105554;1284;20389;-66
2023/01/03 08:35:30;;;;;;;;;4.50;4.50;;;;;20.50;53.61;101681.20;105619;1284;20849;-65
2023/01/03 08:37:58;;;;;;;;;11.00;10.00;;;;;20.53;53.62;101682.72;105417;1283;19646;-65
2023/01/03 08:40:25;;;;;;;;;7.00;4.33;;;;;20.52;53.57;101681.88;105444;1300;18886;-65
2023/01/03 08:42:53;;;;;;;;;7.00;5.00;;;;;20.54;53.80;101681.52;105363;1301;19240;-65
2023/01/03 08:45:20;;;;;;;;;5.00;4.00;;;;;20.57;54.09;101683.82;105427;1275;19640;-64
2023/01/03 08:47:48;;;;;;;;;6.00;5.00;;;;;20.60;54.42;101685.31;105393;1282;19792;-64
2023/01/03 08:50:15;;;;;;;;;4.50;4.50;;;;;20.62;54.49;101686.21;105462;1300;19293;-65
2023/01/03 08:52:42;;;;;;;;;5.00;4.50;;;;;20.65;54.72;101693.20;105318;1282;19619;-63
2023/01/03 08:55:10;;;;;;;;;7.50;7.00;;;;;20.67;54.83;101694.64;105357;1281;23000;-64
2023/01/03 08:57:39;;;;;;;;;4.50;4.00;;;;;20.68;54.83;101694.34;105602;1300;20686;-66
2023/01/03 09:00:06;;;;;;;;;6.50;5.00;;;;;20.69;54.69;101693.28;105471;1282;19647;-66
2023/01/03 09:02:34;;;;;;;;;5.00;5.00;;;;;20.72;54.94;101700.12;105453;1298;18921;-64
2023/01/03 09:05:01;;;;;;;;;;;;;;;20.75;54.87;101700.13;105479;1297;19295;-64
2023/01/03 09:07:28;;;;;;;;;5.00;4.00;;;;;20.78;54.85;101711.98;105454;1294;19625;-65
2023/01/03 09:09:56;;;;;;;;;6.00;5.00;;;;;20.78;55.02;101713.09;105497;1300;18522;-63
2023/01/03 09:12:23;;;;;;;;;4.50;4.00;;;;;20.80;55.06;101710.41;105448;1290;23423;-63
2023/01/03 09:14:50;;;;;;;;;6.00;4.00;;;;;20.80;54.89;101718.66;105479;1282;19527;-63
2023/01/03 09:17:18;;;;;;;;;5.00;4.00;;;;;20.82;55.04;101714.94;105378;1289;20042;-65
2023/01/03 09:19:45;;;;;;;;;4.00;4.00;;;;;20.83;54.94;101718.40;105459;1282;20788;-63
2023/01/03 09:22:12;;;;;;;;;4.00;4.00;;;;;20.83;54.84;101718.63;105306;1285;21883;-63
2023/01/03 09:24:40;;;;;;;;;4.00;4.00;;;;;20.84;54.94;101726.69;105469;1289;22169;-63
2023/01/03 09:27:07;;;;;;;;;5.00;4.00;;;;;20.85;55.08;101725.86;105458;1276;19261;-64
2023/01/03 09:29:34;;;;;;;;;3.00;3.00;;;;;20.86;55.11;101732.27;105407;1298;19625;-64
2023/01/03 09:32:02;;;;;;;;;5.00;5.00;;;;;20.86;54.90;101732.11;105469;1275;18740;-64
2023/01/03 09:34:29;;;;;;;;;4.00;4.00;;;;;20.88;54.97;101741.79;105425;1289;19162;-64
2023/01/03 09:36:56;;;;;;;;;4.00;4.00;;;;;20.87;54.79;101737.88;105484;1301;18376;-64
2023/01/03 09:39:24;;;;;;;;;3.00;2.00;;;;;20.87;55.00;101742.90;105483;1297;18523;-63
2023/01/03 09:44:32;;;;;;;;;4.00;4.00;;;;;20.86;54.96;101739.95;105415;1295;18720;-65
2023/01/03 09:47:00;;;;;;;;;2.00;2.00;;;;;20.84;55.01;101738.36;105356;1282;20096;-65
2023/01/03 09:49:27;;;;;;;;;2.00;1.50;;;;;20.81;55.04;101735.85;105426;1298;21898;-65
2023/01/03 10:05:40;;;;;;;;;2.00;2.00;;;;;20.75;54.74;101751.73;105463;1297;20761;-63
2023/01/03 10:08:22;;;;;;;;;2.00;2.00;;;;;20.73;54.72;101756.42;105453;1301;22959;-64
2023/01/03 10:10:49;;;;;;;;;2.00;2.00;;;;;20.72;54.80;101752.42;105407;1290;21510;-65
2023/01/03 10:13:17;;;;;;;;;5.00;4.00;;;;;20.71;54.70;101753.95;105336;1279;22792;-64
2023/01/03 10:15:44;;;;;;;;;2.00;2.00;;;;;20.71;54.44;101753.64;105456;1275;20214;-63
2023/01/03 10:18:12;;;;;;;;;4.00;4.00;;;;;20.68;54.43;101753.30;105409;1297;21446;-63
2023/01/03 10:20:39;;;;;;;;;1.00;1.00;;;;;20.70;54.49;101755.91;105260;1279;19339;-65
2023/01/03 10:23:06;;;;;;;;;2.00;2.00;;;;;20.72;54.49;101756.45;105348;1305;18358;-63
2023/01/03 10:25:34;;;;;;;;;2.00;2.00;;;;;20.72;54.58;101755.50;105471;1275;18695;-62
2023/01/03 10:28:01;;;;;;;;;1.00;1.00;;;;;20.73;54.73;101755.43;105395;1289;21999;-62
2023/01/03 10:30:28;;;;;;;;;1.50;1.50;;;;;20.72;54.86;101753.55;105479;1282;20944;-64
2023/01/03 10:32:56;;;;;;;;;1.00;1.00;;;;;20.73;54.95;101759.76;105489;1297;18501;-63
2023/01/03 10:35:23;;;;;;;;;1.00;1.00;;;;;20.73;54.95;101758.49;105432;1297;22438;-62
2023/01/03 10:37:51;;;;;;;;;2.00;2.00;;;;;20.71;55.05;101764.17;105471;1297;22746;-62
2023/01/03 10:40:18;;;;;;;;;5.00;2.00;;;;;20.62;54.18;101765.41;105391;1289;22817;-62
2023/01/03 10:42:45;;;;;;;;;4.00;4.00;;;;;20.46;52.66;101767.79;105572;1282;19376;-63
2023/01/03 10:45:13;;;;;;;;;2.00;2.00;;;;;20.45;52.10;101767.07;105513;1288;19584;-63
2023/01/03 10:47:40;;;;;;;;;2.00;2.00;;;;;20.47;52.04;101774.09;105511;1282;23879;-63
2023/01/03 10:50:08;;;;;;;;;2.00;2.00;;;;;20.51;52.07;101772.23;105475;1298;20594;-66
2023/01/03 10:52:35;;;;;;;;;4.00;4.00;;;;;20.57;52.49;101770.84;105458;1305;23726;-64
2023/01/03 10:55:03;;;;;;;;;4.00;4.00;;;;;20.61;52.81;101771.87;105430;1298;20029;-66
2023/01/03 10:57:30;;;;;;;;;2.00;2.00;;;;;20.63;53.69;101777.63;105453;1300;19559;-65
2023/01/03 10:59:57;;;;;;;;;2.00;2.00;;;;;20.66;54.16;101770.58;105477;1297;19665;-65
2023/01/03 11:02:25;;;;;;;;;1.00;1.00;;;;;20.68;54.57;101775.90;105435;1297;22642;-64
2023/01/03 11:04:52;;;;;;;;;4.00;2.00;;;;;20.71;54.70;101775.27;105474;1289;19481;-64
2023/01/03 11:07:19;;;;;;;;;1.50;1.00;;;;;20.73;54.80;101774.85;105506;1289;22227;-64
2023/01/03 11:09:47;;;;;;;;;1.00;1.00;;;;;20.73;54.84;101774.45;105436;1282;20370;-65
2023/01/03 11:12:14;;;;;;;;;2.50;1.50;;;;;20.75;54.92;101773.02;105502;1291;20717;-65
2023/01/03 11:14:42;;;;;;;;;2.00;2.00;;;;;20.74;55.04;101771.45;105468;1274;18283;-65
2023/01/03 11:17:10;;;;;;;;;1.50;1.50;;;;;20.73;55.02;101769.36;105381;1282;18468;-66
2023/01/03 11:19:37;;;;;;;;;2.00;2.00;;;;;20.73;54.99;101769.54;105463;1289;19785;-65
2023/01/03 11:22:05;;;;;;;;;;;;;;;20.71;54.94;101765.41;105423;1300;18568;-65
2023/01/03 11:24:32;;;;;;;;;2.00;2.00;;;;;20.71;54.85;101765.23;105379;1275;18552;-65
2023/01/03 11:27:00;;;;;;;;;2.00;2.00;;;;;20.71;54.69;101762.70;105381;1282;19570;-66
2023/01/03 11:29:28;;;;;;;;;3.50;2.00;;;;;20.70;54.61;101765.19;105399;1282;23004;-65
2023/01/03 11:31:55;;;;;;;;;;;;;;;20.70;54.35;101762.63;105380;1282;20447;-65
2023/01/03 11:34:23;;;;;;;;;1.00;1.00;;;;;20.70;54.39;101764.63;105401;1292;20704;-63
2023/01/03 11:36:50;;;;;;;;;4.00;2.00;;;;;20.69;54.48;101764.87;105473;1282;18476;-65
2023/01/03 11:39:18;;;;;;;;;2.00;2.00;;;;;20.68;54.16;101764.40;105337;1275;22918;-64
2023/01/03 11:41:45;;;;;;;;;2.00;2.00;;;;;20.68;54.17;101764.77;105469;1282;20714;-65
2023/01/03 11:44:12;;;;;;;;;2.00;2.00;;;;;20.68;53.57;101764.02;105487;1300;19595;-65
2023/01/03 11:46:40;;;;;;;;;4.00;2.00;;;;;20.68;53.65;101763.17;105411;1282;20001;-66
2023/01/03 11:49:07;;;;;;;;;4.00;4.00;;;;;20.70;53.83;101757.28;105372;1301;19863;-64
2023/01/03 11:51:35;;;;;;;;;5.00;4.00;;;;;20.71;54.02;101761.92;105450;1304;20639;-66
2023/01/03 11:54:04;;;;;;;;;2.00;2.00;;;;;20.70;53.94;101761.30;105383;1297;18913;-66
2023/01/03 11:56:31;;;;;;;;;2.00;2.00;;;;;20.69;54.04;101763.96;105351;1282;19379;-64
2023/01/03 11:58:59;;;;;;;;;2.00;2.00;;;;;20.70;53.88;101763.16;105340;1288;23447;-64
2023/01/03 12:01:26;;;;;;;;;2.00;2.00;;;;;20.71;53.84;101757.05;105455;1282;18521;-66
2023/01/03 12:03:53;;;;;;;;;2.00;2.00;;;;;20.71;53.80;101762.37;105398;1300;19176;-65
2023/01/03 12:06:21;;;;;;;;;2.00;2.00;;;;;20.68;53.71;101763.67;105420;1282;23471;-65
2023/01/03 12:08:48;;;;;;;;;3.00;2.00;;;;;20.67;53.83;101756.19;105384;1298;18530;-65
2023/01/03 12:11:15;;;;;;;;;2.00;2.00;;;;;20.67;53.83;101763.47;105386;1297;22911;-66
2023/01/03 12:13:43;;;;;;;;;4.00;4.00;;;;;20.66;53.71;101764.24;105377;1281;18443;-64
2023/01/03 12:16:10;;;;;;;;;4.00;4.00;;;;;20.67;53.67;101771.64;105416;1298;18512;-66
2023/01/03 12:18:37;;;;;;;;;;;;;;;20.64;53.60;101769.40;105458;1301;22317;-65
2023/01/03 12:21:05;;;;;;;;;;;;;;;20.65;53.59;101772.60;105443;1290;19626;-66